Terminal Aerodrome Forecast
Issued by NWS Jackson, MS

Home | Current Version | Previous Version | Text Only | Print | Product List | Glossary On
Versions: 1 2 3 4 5 6 7 8 9 10 11 12
000
FTUS44 KJAN 010500
TAFJAN
TAF
KJAN 010523Z 0106/0206 00000KT P6SM FEW120 OVC150
     FM011000 08003KT P6SM VCSH SCT070 OVC100
     FM011600 35006KT P6SM VCSH SCT030 OVC050
     FM020000 04003KT P6SM BKN100=

USA.gov is the U.S. government's official web portal to all federal, state and local government web resources and services.